Weather at Lotnisko Konopki

Public forecast

Using degrees Celsius for public forecast. Weather courtesy of forecast.io.

Closest aviation weather report (METAR) to Lotnisko Konopki

Closest report is Modlin Airport, 32.8 nm (60.7 km) S.

2022/12/04 05:00 (retrieved 23 minutes ago)

EPMO 040500Z 10010KT 3500 BR OVC004 00/00 Q1025

Closest aviation forecast (TAF) to Lotnisko Konopki

Forecast is more than 6 hours old.

Closest forecast is Slia─Ź Airport, 266.4 nm (493.4 km) SSW.

2022/12/03 18:33 (retrieved 11 hours ago)

TAF LZSL 031630Z 0318/0406 VRB02KT 9999 SCT025 BKN045 BECMG 0402/0404 5000 BR BKN015 BKN025